sensor_id;sensor_type;location;lat;lon;timestamp;P1;durP1;ratioP1;P2;durP2;ratioP2
9698;SDS011;10089;47.876;8.346;2022-12-10T00:01:24;45.83;;;22.90;;
9698;SDS011;10089;47.876;8.346;2022-12-10T00:03:50;44.43;;;20.80;;
9698;SDS011;10089;47.876;8.346;2022-12-10T00:06:18;56.20;;;23.80;;
9698;SDS011;10089;47.876;8.346;2022-12-10T00:08:45;55.93;;;24.13;;
9698;SDS011;10089;47.876;8.346;2022-12-10T00:11:12;50.97;;;23.57;;
9698;SDS011;10089;47.876;8.346;2022-12-10T00:13:39;51.67;;;22.50;;
9698;SDS011;10089;47.876;8.346;2022-12-10T00:16:06;41.97;;;21.07;;
9698;SDS011;10089;47.876;8.346;2022-12-10T00:18:34;48.63;;;23.07;;
9698;SDS011;10089;47.876;8.346;2022-12-10T00:21:04;52.87;;;22.13;;
9698;SDS011;10089;47.876;8.346;2022-12-10T00:23:31;46.23;;;22.47;;
9698;SDS011;10089;47.876;8.346;2022-12-10T00:28:52;51.70;;;24.50;;
9698;SDS011;10089;47.876;8.346;2022-12-10T00:31:20;51.83;;;23.53;;
9698;SDS011;10089;47.876;8.346;2022-12-10T00:33:47;54.60;;;23.63;;
9698;SDS011;10089;47.876;8.346;2022-12-10T00:36:18;47.40;;;22.63;;
9698;SDS011;10089;47.876;8.346;2022-12-10T00:38:46;59.83;;;24.77;;
9698;SDS011;10089;47.876;8.346;2022-12-10T00:41:13;62.57;;;25.27;;
9698;SDS011;10089;47.876;8.346;2022-12-10T00:43:40;58.63;;;24.73;;
9698;SDS011;10089;47.876;8.346;2022-12-10T00:46:06;87.37;;;27.67;;
9698;SDS011;10089;47.876;8.346;2022-12-10T00:48:33;57.60;;;24.77;;
9698;SDS011;10089;47.876;8.346;2022-12-10T00:53:35;56.07;;;23.30;;
9698;SDS011;10089;47.876;8.346;2022-12-10T00:56:02;60.60;;;26.37;;
9698;SDS011;10089;47.876;8.346;2022-12-10T00:58:29;59.17;;;24.37;;
9698;SDS011;10089;47.876;8.346;2022-12-10T01:01:06;64.37;;;25.07;;
9698;SDS011;10089;47.876;8.346;2022-12-10T01:03:32;61.70;;;25.20;;
9698;SDS011;10089;47.876;8.346;2022-12-10T01:06:01;60.73;;;25.73;;
9698;SDS011;10089;47.876;8.346;2022-12-10T01:08:40;61.90;;;26.57;;
9698;SDS011;10089;47.876;8.346;2022-12-10T01:11:06;57.23;;;26.00;;
9698;SDS011;10089;47.876;8.346;2022-12-10T01:13:33;62.67;;;25.60;;
9698;SDS011;10089;47.876;8.346;2022-12-10T01:16:02;71.60;;;27.03;;
9698;SDS011;10089;47.876;8.346;2022-12-10T01:18:29;57.30;;;25.73;;
9698;SDS011;10089;47.876;8.346;2022-12-10T01:21:00;56.67;;;24.70;;
9698;SDS011;10089;47.876;8.346;2022-12-10T01:23:27;56.37;;;25.20;;
9698;SDS011;10089;47.876;8.346;2022-12-10T01:25:52;58.63;;;24.63;;
9698;SDS011;10089;47.876;8.346;2022-12-10T01:28:18;65.73;;;26.67;;
9698;SDS011;10089;47.876;8.346;2022-12-10T01:30:44;58.03;;;24.60;;
9698;SDS011;10089;47.876;8.346;2022-12-10T01:33:09;57.23;;;22.47;;
9698;SDS011;10089;47.876;8.346;2022-12-10T01:35:36;49.87;;;23.33;;
9698;SDS011;10089;47.876;8.346;2022-12-10T01:38:02;56.10;;;24.00;;
9698;SDS011;10089;47.876;8.346;2022-12-10T01:40:28;58.07;;;23.77;;
9698;SDS011;10089;47.876;8.346;2022-12-10T01:42:54;48.90;;;23.20;;
9698;SDS011;10089;47.876;8.346;2022-12-10T01:45:19;54.50;;;24.83;;
9698;SDS011;10089;47.876;8.346;2022-12-10T01:47:45;50.07;;;22.07;;
9698;SDS011;10089;47.876;8.346;2022-12-10T01:50:11;55.00;;;22.60;;
9698;SDS011;10089;47.876;8.346;2022-12-10T01:52:36;49.20;;;21.40;;
9698;SDS011;10089;47.876;8.346;2022-12-10T01:55:06;54.27;;;21.97;;
9698;SDS011;10089;47.876;8.346;2022-12-10T01:57:52;59.20;;;21.70;;
9698;SDS011;10089;47.876;8.346;2022-12-10T02:00:18;47.67;;;22.40;;
9698;SDS011;10089;47.876;8.346;2022-12-10T02:02:50;64.97;;;25.27;;
9698;SDS011;10089;47.876;8.346;2022-12-10T02:05:28;60.60;;;23.47;;
9698;SDS011;10089;47.876;8.346;2022-12-10T02:10:59;57.03;;;23.60;;
9698;SDS011;10089;47.876;8.346;2022-12-10T02:13:36;58.03;;;23.77;;
9698;SDS011;10089;47.876;8.346;2022-12-10T02:18:55;62.00;;;23.83;;
9698;SDS011;10089;47.876;8.346;2022-12-10T02:21:29;56.37;;;23.27;;
9698;SDS011;10089;47.876;8.346;2022-12-10T02:24:00;55.57;;;23.63;;
9698;SDS011;10089;47.876;8.346;2022-12-10T02:29:20;57.60;;;23.30;;
9698;SDS011;10089;47.876;8.346;2022-12-10T02:32:04;57.93;;;23.40;;
9698;SDS011;10089;47.876;8.346;2022-12-10T02:34:43;67.17;;;23.37;;
9698;SDS011;10089;47.876;8.346;2022-12-10T02:37:35;62.30;;;24.47;;
9698;SDS011;10089;47.876;8.346;2022-12-10T02:40:07;73.33;;;24.40;;
9698;SDS011;10089;47.876;8.346;2022-12-10T02:42:38;58.23;;;24.67;;
9698;SDS011;10089;47.876;8.346;2022-12-10T02:45:07;58.67;;;24.20;;
9698;SDS011;10089;47.876;8.346;2022-12-10T02:47:34;84.67;;;25.33;;
9698;SDS011;10089;47.876;8.346;2022-12-10T02:50:01;64.30;;;25.83;;
9698;SDS011;10089;47.876;8.346;2022-12-10T02:52:27;66.57;;;23.67;;
9698;SDS011;10089;47.876;8.346;2022-12-10T02:54:53;64.17;;;23.60;;
9698;SDS011;10089;47.876;8.346;2022-12-10T03:00:19;63.63;;;25.40;;
9698;SDS011;10089;47.876;8.346;2022-12-10T03:08:03;52.43;;;22.70;;
9698;SDS011;10089;47.876;8.346;2022-12-10T03:13:20;54.17;;;22.27;;
9698;SDS011;10089;47.876;8.346;2022-12-10T03:15:52;54.50;;;24.23;;
9698;SDS011;10089;47.876;8.346;2022-12-10T03:18:19;64.23;;;24.97;;
9698;SDS011;10089;47.876;8.346;2022-12-10T03:20:49;53.00;;;23.33;;
9698;SDS011;10089;47.876;8.346;2022-12-10T03:23:18;56.67;;;24.00;;
9698;SDS011;10089;47.876;8.346;2022-12-10T03:25:46;52.93;;;24.17;;
9698;SDS011;10089;47.876;8.346;2022-12-10T03:28:14;47.13;;;23.17;;
9698;SDS011;10089;47.876;8.346;2022-12-10T03:30:43;52.03;;;22.63;;
9698;SDS011;10089;47.876;8.346;2022-12-10T03:33:10;51.30;;;24.33;;
9698;SDS011;10089;47.876;8.346;2022-12-10T03:35:37;47.80;;;20.87;;
9698;SDS011;10089;47.876;8.346;2022-12-10T03:38:04;53.33;;;23.23;;
9698;SDS011;10089;47.876;8.346;2022-12-10T03:40:30;50.90;;;21.97;;
9698;SDS011;10089;47.876;8.346;2022-12-10T03:42:56;57.77;;;24.67;;
9698;SDS011;10089;47.876;8.346;2022-12-10T03:45:22;49.50;;;22.33;;
9698;SDS011;10089;47.876;8.346;2022-12-10T03:47:47;60.80;;;24.00;;
9698;SDS011;10089;47.876;8.346;2022-12-10T03:50:14;55.27;;;23.37;;
9698;SDS011;10089;47.876;8.346;2022-12-10T03:52:40;56.23;;;24.33;;
9698;SDS011;10089;47.876;8.346;2022-12-10T03:55:06;62.27;;;23.20;;
9698;SDS011;10089;47.876;8.346;2022-12-10T03:57:33;54.00;;;23.57;;
9698;SDS011;10089;47.876;8.346;2022-12-10T03:59:59;61.90;;;25.00;;
9698;SDS011;10089;47.876;8.346;2022-12-10T04:02:25;56.57;;;23.73;;
9698;SDS011;10089;47.876;8.346;2022-12-10T04:04:50;53.97;;;23.97;;
9698;SDS011;10089;47.876;8.346;2022-12-10T04:07:16;56.23;;;24.43;;
9698;SDS011;10089;47.876;8.346;2022-12-10T04:09:42;55.30;;;24.67;;
9698;SDS011;10089;47.876;8.346;2022-12-10T04:12:07;50.07;;;24.33;;
9698;SDS011;10089;47.876;8.346;2022-12-10T04:14:33;53.03;;;23.30;;
9698;SDS011;10089;47.876;8.346;2022-12-10T04:17:18;52.50;;;24.27;;
9698;SDS011;10089;47.876;8.346;2022-12-10T04:19:44;54.50;;;22.73;;
9698;SDS011;10089;47.876;8.346;2022-12-10T04:22:10;48.97;;;22.33;;
9698;SDS011;10089;47.876;8.346;2022-12-10T04:24:54;54.33;;;21.33;;
9698;SDS011;10089;47.876;8.346;2022-12-10T04:27:38;57.17;;;23.33;;
9698;SDS011;10089;47.876;8.346;2022-12-10T04:30:05;50.50;;;22.33;;
9698;SDS011;10089;47.876;8.346;2022-12-10T04:32:33;54.27;;;22.07;;
9698;SDS011;10089;47.876;8.346;2022-12-10T04:34:59;54.70;;;23.10;;
9698;SDS011;10089;47.876;8.346;2022-12-10T04:37:25;48.53;;;22.13;;
9698;SDS011;10089;47.876;8.346;2022-12-10T04:39:52;46.73;;;21.77;;
9698;SDS011;10089;47.876;8.346;2022-12-10T04:42:19;49.10;;;21.17;;
9698;SDS011;10089;47.876;8.346;2022-12-10T04:44:46;50.37;;;20.90;;
9698;SDS011;10089;47.876;8.346;2022-12-10T04:47:12;51.53;;;22.43;;
9698;SDS011;10089;47.876;8.346;2022-12-10T04:49:38;43.27;;;20.90;;
9698;SDS011;10089;47.876;8.346;2022-12-10T04:52:04;47.57;;;21.27;;
9698;SDS011;10089;47.876;8.346;2022-12-10T04:54:31;47.23;;;21.73;;
9698;SDS011;10089;47.876;8.346;2022-12-10T04:56:57;48.40;;;21.13;;
9698;SDS011;10089;47.876;8.346;2022-12-10T04:59:23;49.17;;;19.60;;
9698;SDS011;10089;47.876;8.346;2022-12-10T05:01:49;47.70;;;20.87;;
9698;SDS011;10089;47.876;8.346;2022-12-10T05:04:16;43.20;;;20.70;;
9698;SDS011;10089;47.876;8.346;2022-12-10T05:06:43;41.13;;;19.63;;
9698;SDS011;10089;47.876;8.346;2022-12-10T05:09:13;39.80;;;19.87;;
9698;SDS011;10089;47.876;8.346;2022-12-10T05:11:38;44.70;;;20.60;;
9698;SDS011;10089;47.876;8.346;2022-12-10T05:14:05;41.47;;;19.27;;
9698;SDS011;10089;47.876;8.346;2022-12-10T05:16:31;38.30;;;16.47;;
9698;SDS011;10089;47.876;8.346;2022-12-10T05:18:58;37.87;;;19.47;;
9698;SDS011;10089;47.876;8.346;2022-12-10T05:21:25;40.60;;;18.83;;
9698;SDS011;10089;47.876;8.346;2022-12-10T05:24:11;42.43;;;18.70;;
9698;SDS011;10089;47.876;8.346;2022-12-10T05:26:37;43.07;;;19.63;;
9698;SDS011;10089;47.876;8.346;2022-12-10T05:29:03;39.87;;;20.00;;
9698;SDS011;10089;47.876;8.346;2022-12-10T05:31:29;39.60;;;18.77;;
9698;SDS011;10089;47.876;8.346;2022-12-10T05:33:56;41.27;;;18.60;;
9698;SDS011;10089;47.876;8.346;2022-12-10T05:36:24;38.37;;;18.83;;
9698;SDS011;10089;47.876;8.346;2022-12-10T05:38:51;32.43;;;16.10;;
9698;SDS011;10089;47.876;8.346;2022-12-10T05:41:20;34.27;;;17.37;;
9698;SDS011;10089;47.876;8.346;2022-12-10T05:43:47;40.57;;;17.00;;
9698;SDS011;10089;47.876;8.346;2022-12-10T05:46:18;35.57;;;16.87;;
9698;SDS011;10089;47.876;8.346;2022-12-10T05:48:45;34.73;;;17.37;;
9698;SDS011;10089;47.876;8.346;2022-12-10T05:51:15;29.57;;;16.27;;
9698;SDS011;10089;47.876;8.346;2022-12-10T05:53:46;35.07;;;17.07;;
9698;SDS011;10089;47.876;8.346;2022-12-10T05:56:16;31.60;;;15.53;;
9698;SDS011;10089;47.876;8.346;2022-12-10T05:58:44;33.97;;;15.07;;
9698;SDS011;10089;47.876;8.346;2022-12-10T06:01:12;33.50;;;16.73;;
9698;SDS011;10089;47.876;8.346;2022-12-10T06:03:39;34.60;;;16.87;;
9698;SDS011;10089;47.876;8.346;2022-12-10T06:06:06;31.93;;;16.03;;
9698;SDS011;10089;47.876;8.346;2022-12-10T06:08:33;31.37;;;16.70;;
9698;SDS011;10089;47.876;8.346;2022-12-10T06:11:03;36.77;;;17.50;;
9698;SDS011;10089;47.876;8.346;2022-12-10T06:13:30;32.67;;;16.57;;
9698;SDS011;10089;47.876;8.346;2022-12-10T06:15:56;34.00;;;17.03;;
9698;SDS011;10089;47.876;8.346;2022-12-10T06:18:22;31.80;;;15.70;;
9698;SDS011;10089;47.876;8.346;2022-12-10T06:20:48;33.10;;;15.27;;
9698;SDS011;10089;47.876;8.346;2022-12-10T06:23:14;29.67;;;15.80;;
9698;SDS011;10089;47.876;8.346;2022-12-10T06:25:40;31.00;;;16.10;;
9698;SDS011;10089;47.876;8.346;2022-12-10T06:28:06;29.97;;;15.87;;
9698;SDS011;10089;47.876;8.346;2022-12-10T06:30:33;36.03;;;17.93;;
9698;SDS011;10089;47.876;8.346;2022-12-10T06:32:59;32.83;;;17.10;;
9698;SDS011;10089;47.876;8.346;2022-12-10T06:35:25;29.13;;;16.50;;
9698;SDS011;10089;47.876;8.346;2022-12-10T06:37:51;29.40;;;16.17;;
9698;SDS011;10089;47.876;8.346;2022-12-10T06:40:17;31.67;;;15.23;;
9698;SDS011;10089;47.876;8.346;2022-12-10T06:42:43;30.03;;;14.90;;
9698;SDS011;10089;47.876;8.346;2022-12-10T06:45:09;23.10;;;14.30;;
9698;SDS011;10089;47.876;8.346;2022-12-10T06:47:36;27.33;;;15.70;;
9698;SDS011;10089;47.876;8.346;2022-12-10T06:50:02;25.87;;;14.00;;
9698;SDS011;10089;47.876;8.346;2022-12-10T06:52:28;26.13;;;13.87;;
9698;SDS011;10089;47.876;8.346;2022-12-10T06:54:54;26.47;;;13.67;;
9698;SDS011;10089;47.876;8.346;2022-12-10T06:57:20;23.63;;;13.43;;
9698;SDS011;10089;47.876;8.346;2022-12-10T06:59:46;21.57;;;13.23;;
9698;SDS011;10089;47.876;8.346;2022-12-10T07:02:12;30.07;;;13.83;;
9698;SDS011;10089;47.876;8.346;2022-12-10T07:04:38;22.47;;;13.40;;
9698;SDS011;10089;47.876;8.346;2022-12-10T07:07:04;22.77;;;12.87;;
9698;SDS011;10089;47.876;8.346;2022-12-10T07:09:31;24.47;;;12.37;;
9698;SDS011;10089;47.876;8.346;2022-12-10T07:11:58;23.37;;;14.13;;
9698;SDS011;10089;47.876;8.346;2022-12-10T07:14:23;25.47;;;13.53;;
9698;SDS011;10089;47.876;8.346;2022-12-10T07:16:49;26.20;;;12.77;;
9698;SDS011;10089;47.876;8.346;2022-12-10T07:19:15;23.00;;;13.37;;
9698;SDS011;10089;47.876;8.346;2022-12-10T07:21:41;25.67;;;13.40;;
9698;SDS011;10089;47.876;8.346;2022-12-10T07:24:12;25.37;;;13.47;;
9698;SDS011;10089;47.876;8.346;2022-12-10T07:26:40;27.97;;;14.00;;
9698;SDS011;10089;47.876;8.346;2022-12-10T07:29:09;24.47;;;13.93;;
9698;SDS011;10089;47.876;8.346;2022-12-10T07:31:41;36.97;;;18.57;;
9698;SDS011;10089;47.876;8.346;2022-12-10T07:34:08;31.10;;;18.23;;
9698;SDS011;10089;47.876;8.346;2022-12-10T07:36:34;26.80;;;15.20;;
9698;SDS011;10089;47.876;8.346;2022-12-10T07:39:00;27.53;;;15.97;;
9698;SDS011;10089;47.876;8.346;2022-12-10T07:41:26;58.37;;;26.27;;
9698;SDS011;10089;47.876;8.346;2022-12-10T07:43:52;92.27;;;38.80;;
9698;SDS011;10089;47.876;8.346;2022-12-10T07:46:19;93.27;;;38.33;;
9698;SDS011;10089;47.876;8.346;2022-12-10T07:48:48;97.47;;;41.83;;
9698;SDS011;10089;47.876;8.346;2022-12-10T07:51:15;54.17;;;27.50;;
9698;SDS011;10089;47.876;8.346;2022-12-10T07:53:42;53.27;;;29.50;;
9698;SDS011;10089;47.876;8.346;2022-12-10T07:56:07;28.10;;;16.83;;
9698;SDS011;10089;47.876;8.346;2022-12-10T07:58:34;23.43;;;14.50;;
9698;SDS011;10089;47.876;8.346;2022-12-10T08:01:10;28.17;;;14.77;;
9698;SDS011;10089;47.876;8.346;2022-12-10T08:03:38;26.27;;;16.47;;
9698;SDS011;10089;47.876;8.346;2022-12-10T08:06:05;30.17;;;17.23;;
9698;SDS011;10089;47.876;8.346;2022-12-10T08:08:34;27.60;;;15.27;;
9698;SDS011;10089;47.876;8.346;2022-12-10T08:11:01;25.93;;;14.50;;
9698;SDS011;10089;47.876;8.346;2022-12-10T08:13:28;25.73;;;14.83;;
9698;SDS011;10089;47.876;8.346;2022-12-10T08:16:00;26.83;;;14.87;;
9698;SDS011;10089;47.876;8.346;2022-12-10T08:18:27;21.07;;;13.60;;
9698;SDS011;10089;47.876;8.346;2022-12-10T08:20:52;22.00;;;14.07;;
9698;SDS011;10089;47.876;8.346;2022-12-10T08:23:18;21.40;;;12.73;;
9698;SDS011;10089;47.876;8.346;2022-12-10T08:25:44;22.07;;;13.97;;
9698;SDS011;10089;47.876;8.346;2022-12-10T08:28:09;20.93;;;14.13;;
9698;SDS011;10089;47.876;8.346;2022-12-10T08:30:35;20.47;;;12.67;;
9698;SDS011;10089;47.876;8.346;2022-12-10T08:33:01;21.73;;;13.90;;
9698;SDS011;10089;47.876;8.346;2022-12-10T08:35:28;22.20;;;13.67;;
9698;SDS011;10089;47.876;8.346;2022-12-10T08:37:54;30.17;;;20.63;;
9698;SDS011;10089;47.876;8.346;2022-12-10T08:40:20;33.23;;;22.10;;
9698;SDS011;10089;47.876;8.346;2022-12-10T08:42:45;22.67;;;14.63;;
9698;SDS011;10089;47.876;8.346;2022-12-10T08:45:11;22.47;;;12.57;;
9698;SDS011;10089;47.876;8.346;2022-12-10T08:47:37;22.43;;;12.90;;
9698;SDS011;10089;47.876;8.346;2022-12-10T08:50:03;20.97;;;13.43;;
9698;SDS011;10089;47.876;8.346;2022-12-10T08:52:29;20.23;;;12.47;;
9698;SDS011;10089;47.876;8.346;2022-12-10T08:54:55;22.17;;;13.93;;
9698;SDS011;10089;47.876;8.346;2022-12-10T08:57:20;23.23;;;12.83;;
9698;SDS011;10089;47.876;8.346;2022-12-10T08:59:46;20.80;;;13.90;;
9698;SDS011;10089;47.876;8.346;2022-12-10T09:02:12;19.60;;;11.87;;
9698;SDS011;10089;47.876;8.346;2022-12-10T09:04:38;18.73;;;11.80;;
9698;SDS011;10089;47.876;8.346;2022-12-10T09:07:07;18.60;;;12.47;;
9698;SDS011;10089;47.876;8.346;2022-12-10T09:09:33;19.17;;;12.13;;
9698;SDS011;10089;47.876;8.346;2022-12-10T09:11:59;19.80;;;12.17;;
9698;SDS011;10089;47.876;8.346;2022-12-10T09:14:25;18.30;;;11.10;;
9698;SDS011;10089;47.876;8.346;2022-12-10T09:16:50;21.47;;;12.23;;
9698;SDS011;10089;47.876;8.346;2022-12-10T09:19:16;24.70;;;16.13;;
9698;SDS011;10089;47.876;8.346;2022-12-10T09:21:42;19.33;;;12.37;;
9698;SDS011;10089;47.876;8.346;2022-12-10T09:24:08;18.30;;;12.40;;
9698;SDS011;10089;47.876;8.346;2022-12-10T09:26:34;20.80;;;13.73;;
9698;SDS011;10089;47.876;8.346;2022-12-10T09:29:00;24.87;;;13.67;;
9698;SDS011;10089;47.876;8.346;2022-12-10T09:31:26;28.23;;;14.73;;
9698;SDS011;10089;47.876;8.346;2022-12-10T09:33:52;16.77;;;11.17;;
9698;SDS011;10089;47.876;8.346;2022-12-10T09:36:19;12.53;;;9.47;;
9698;SDS011;10089;47.876;8.346;2022-12-10T09:38:45;13.87;;;9.53;;
9698;SDS011;10089;47.876;8.346;2022-12-10T09:47:07;12.43;;;8.83;;
9698;SDS011;10089;47.876;8.346;2022-12-10T09:52:11;12.93;;;8.30;;
9698;SDS011;10089;47.876;8.346;2022-12-10T09:55:14;11.07;;;8.10;;
9698;SDS011;10089;47.876;8.346;2022-12-10T09:57:47;9.70;;;7.37;;
9698;SDS011;10089;47.876;8.346;2022-12-10T10:02:43;9.87;;;7.80;;
9698;SDS011;10089;47.876;8.346;2022-12-10T10:05:10;9.03;;;7.10;;
9698;SDS011;10089;47.876;8.346;2022-12-10T10:07:42;8.93;;;6.70;;
9698;SDS011;10089;47.876;8.346;2022-12-10T10:10:27;8.33;;;6.73;;
9698;SDS011;10089;47.876;8.346;2022-12-10T10:12:54;10.40;;;7.10;;
9698;SDS011;10089;47.876;8.346;2022-12-10T10:15:39;8.47;;;6.43;;
9698;SDS011;10089;47.876;8.346;2022-12-10T10:20:46;8.40;;;6.50;;
9698;SDS011;10089;47.876;8.346;2022-12-10T10:23:14;8.67;;;6.60;;
9698;SDS011;10089;47.876;8.346;2022-12-10T10:25:40;8.80;;;6.13;;
9698;SDS011;10089;47.876;8.346;2022-12-10T10:28:09;8.63;;;7.10;;
9698;SDS011;10089;47.876;8.346;2022-12-10T10:30:37;8.23;;;6.83;;
9698;SDS011;10089;47.876;8.346;2022-12-10T10:33:08;7.30;;;6.47;;
9698;SDS011;10089;47.876;8.346;2022-12-10T10:35:43;8.93;;;6.60;;
9698;SDS011;10089;47.876;8.346;2022-12-10T10:38:22;8.17;;;7.03;;
9698;SDS011;10089;47.876;8.346;2022-12-10T10:40:51;9.30;;;7.10;;
9698;SDS011;10089;47.876;8.346;2022-12-10T10:46:12;8.40;;;6.83;;
9698;SDS011;10089;47.876;8.346;2022-12-10T10:48:40;8.07;;;6.90;;
9698;SDS011;10089;47.876;8.346;2022-12-10T10:56:07;9.73;;;7.20;;
9698;SDS011;10089;47.876;8.346;2022-12-10T10:59:04;10.33;;;7.67;;
9698;SDS011;10089;47.876;8.346;2022-12-10T11:04:20;11.30;;;8.47;;
9698;SDS011;10089;47.876;8.346;2022-12-10T11:07:14;13.00;;;8.43;;
9698;SDS011;10089;47.876;8.346;2022-12-10T11:09:58;16.60;;;11.33;;
9698;SDS011;10089;47.876;8.346;2022-12-10T11:12:35;14.73;;;10.60;;
9698;SDS011;10089;47.876;8.346;2022-12-10T11:15:24;13.87;;;10.23;;
9698;SDS011;10089;47.876;8.346;2022-12-10T11:17:49;16.37;;;11.33;;
9698;SDS011;10089;47.876;8.346;2022-12-10T11:30:46;15.47;;;11.43;;
9698;SDS011;10089;47.876;8.346;2022-12-10T11:36:32;17.63;;;12.33;;
9698;SDS011;10089;47.876;8.346;2022-12-10T11:41:59;22.30;;;13.30;;
9698;SDS011;10089;47.876;8.346;2022-12-10T11:44:56;21.43;;;13.53;;
9698;SDS011;10089;47.876;8.346;2022-12-10T11:50:12;20.13;;;13.03;;
9698;SDS011;10089;47.876;8.346;2022-12-10T12:01:08;21.50;;;13.63;;
9698;SDS011;10089;47.876;8.346;2022-12-10T12:09:59;23.97;;;14.40;;
9698;SDS011;10089;47.876;8.346;2022-12-10T12:21:22;19.90;;;12.63;;
9698;SDS011;10089;47.876;8.346;2022-12-10T12:23:50;19.57;;;12.90;;
9698;SDS011;10089;47.876;8.346;2022-12-10T12:26:57;17.63;;;12.30;;
9698;SDS011;10089;47.876;8.346;2022-12-10T12:29:33;22.03;;;14.33;;
9698;SDS011;10089;47.876;8.346;2022-12-10T12:32:09;20.83;;;13.43;;
9698;SDS011;10089;47.876;8.346;2022-12-10T12:37:53;18.60;;;12.13;;
9698;SDS011;10089;47.876;8.346;2022-12-10T12:40:28;17.93;;;11.77;;
9698;SDS011;10089;47.876;8.346;2022-12-10T12:43:28;17.23;;;11.67;;
9698;SDS011;10089;47.876;8.346;2022-12-10T12:45:59;19.10;;;12.20;;
9698;SDS011;10089;47.876;8.346;2022-12-10T12:48:36;19.43;;;13.03;;
9698;SDS011;10089;47.876;8.346;2022-12-10T12:51:23;20.47;;;12.90;;
9698;SDS011;10089;47.876;8.346;2022-12-10T12:53:54;19.50;;;11.60;;
9698;SDS011;10089;47.876;8.346;2022-12-10T12:56:23;17.17;;;11.87;;
9698;SDS011;10089;47.876;8.346;2022-12-10T13:04:47;17.23;;;11.00;;
9698;SDS011;10089;47.876;8.346;2022-12-10T13:15:32;17.03;;;10.70;;
9698;SDS011;10089;47.876;8.346;2022-12-10T13:17:38;16.33;;;11.23;;
9698;SDS011;10089;47.876;8.346;2022-12-10T13:22:55;19.13;;;11.50;;
9698;SDS011;10089;47.876;8.346;2022-12-10T13:26:25;20.90;;;12.40;;
9698;SDS011;10089;47.876;8.346;2022-12-10T13:33:49;16.53;;;10.73;;
9698;SDS011;10089;47.876;8.346;2022-12-10T13:36:23;15.97;;;10.53;;
9698;SDS011;10089;47.876;8.346;2022-12-10T13:39:12;15.90;;;10.67;;
9698;SDS011;10089;47.876;8.346;2022-12-10T13:44:59;16.67;;;10.43;;
9698;SDS011;10089;47.876;8.346;2022-12-10T13:47:31;17.23;;;10.47;;
9698;SDS011;10089;47.876;8.346;2022-12-10T13:55:49;16.57;;;9.77;;
9698;SDS011;10089;47.876;8.346;2022-12-10T14:07:28;9.67;;;6.80;;
9698;SDS011;10089;47.876;8.346;2022-12-10T14:09:56;10.00;;;6.57;;
9698;SDS011;10089;47.876;8.346;2022-12-10T14:12:25;10.27;;;6.57;;
9698;SDS011;10089;47.876;8.346;2022-12-10T14:14:57;10.30;;;6.90;;
9698;SDS011;10089;47.876;8.346;2022-12-10T14:17:33;11.43;;;7.17;;
9698;SDS011;10089;47.876;8.346;2022-12-10T14:20:04;11.40;;;6.90;;
9698;SDS011;10089;47.876;8.346;2022-12-10T14:22:34;11.67;;;7.93;;
9698;SDS011;10089;47.876;8.346;2022-12-10T14:25:04;10.63;;;7.47;;
9698;SDS011;10089;47.876;8.346;2022-12-10T14:27:35;14.17;;;8.50;;
9698;SDS011;10089;47.876;8.346;2022-12-10T14:30:05;10.77;;;7.37;;
9698;SDS011;10089;47.876;8.346;2022-12-10T14:32:40;10.80;;;7.60;;
9698;SDS011;10089;47.876;8.346;2022-12-10T14:35:07;11.40;;;7.10;;
9698;SDS011;10089;47.876;8.346;2022-12-10T14:37:44;9.70;;;7.37;;
9698;SDS011;10089;47.876;8.346;2022-12-10T14:40:25;13.37;;;8.20;;
9698;SDS011;10089;47.876;8.346;2022-12-10T14:43:08;9.67;;;7.23;;
9698;SDS011;10089;47.876;8.346;2022-12-10T14:45:44;12.57;;;8.07;;
9698;SDS011;10089;47.876;8.346;2022-12-10T14:48:20;10.87;;;7.27;;
9698;SDS011;10089;47.876;8.346;2022-12-10T14:50:46;10.57;;;7.87;;
9698;SDS011;10089;47.876;8.346;2022-12-10T14:53:16;11.67;;;7.63;;
9698;SDS011;10089;47.876;8.346;2022-12-10T14:55:48;11.63;;;7.77;;
9698;SDS011;10089;47.876;8.346;2022-12-10T14:58:30;12.10;;;7.50;;
9698;SDS011;10089;47.876;8.346;2022-12-10T15:00:57;12.03;;;7.47;;
9698;SDS011;10089;47.876;8.346;2022-12-10T15:03:27;11.23;;;7.27;;
9698;SDS011;10089;47.876;8.346;2022-12-10T15:05:56;10.73;;;7.47;;
9698;SDS011;10089;47.876;8.346;2022-12-10T15:08:24;10.97;;;7.60;;
9698;SDS011;10089;47.876;8.346;2022-12-10T15:10:52;14.30;;;7.00;;
9698;SDS011;10089;47.876;8.346;2022-12-10T15:13:28;10.73;;;7.40;;
9698;SDS011;10089;47.876;8.346;2022-12-10T15:16:02;10.67;;;7.23;;
9698;SDS011;10089;47.876;8.346;2022-12-10T15:18:33;10.33;;;7.07;;
9698;SDS011;10089;47.876;8.346;2022-12-10T15:21:04;13.80;;;7.87;;
9698;SDS011;10089;47.876;8.346;2022-12-10T15:23:35;12.07;;;8.23;;
9698;SDS011;10089;47.876;8.346;2022-12-10T15:28:42;11.70;;;7.40;;
9698;SDS011;10089;47.876;8.346;2022-12-10T15:34:00;11.10;;;6.90;;
9698;SDS011;10089;47.876;8.346;2022-12-10T15:36:41;10.40;;;6.67;;
9698;SDS011;10089;47.876;8.346;2022-12-10T15:39:21;11.27;;;7.63;;
9698;SDS011;10089;47.876;8.346;2022-12-10T15:41:52;11.30;;;7.60;;
9698;SDS011;10089;47.876;8.346;2022-12-10T15:49:26;13.83;;;8.50;;
9698;SDS011;10089;47.876;8.346;2022-12-10T15:51:53;13.33;;;9.53;;
9698;SDS011;10089;47.876;8.346;2022-12-10T15:54:23;13.30;;;9.00;;
9698;SDS011;10089;47.876;8.346;2022-12-10T15:57:11;13.87;;;9.30;;
9698;SDS011;10089;47.876;8.346;2022-12-10T15:59:43;13.13;;;9.20;;
9698;SDS011;10089;47.876;8.346;2022-12-10T16:04:54;17.03;;;10.83;;
9698;SDS011;10089;47.876;8.346;2022-12-10T16:07:20;18.60;;;11.00;;
9698;SDS011;10089;47.876;8.346;2022-12-10T16:09:46;21.63;;;11.13;;
9698;SDS011;10089;47.876;8.346;2022-12-10T16:12:12;19.00;;;11.53;;
9698;SDS011;10089;47.876;8.346;2022-12-10T16:14:49;14.57;;;9.97;;
9698;SDS011;10089;47.876;8.346;2022-12-10T16:17:21;15.87;;;10.33;;
9698;SDS011;10089;47.876;8.346;2022-12-10T16:19:47;17.00;;;10.23;;
9698;SDS011;10089;47.876;8.346;2022-12-10T16:22:13;15.47;;;11.23;;
9698;SDS011;10089;47.876;8.346;2022-12-10T16:24:39;18.17;;;10.23;;
9698;SDS011;10089;47.876;8.346;2022-12-10T16:27:10;19.77;;;12.87;;
9698;SDS011;10089;47.876;8.346;2022-12-10T16:29:38;21.07;;;12.43;;
9698;SDS011;10089;47.876;8.346;2022-12-10T16:37:09;19.73;;;12.33;;
9698;SDS011;10089;47.876;8.346;2022-12-10T16:39:35;17.27;;;10.93;;
9698;SDS011;10089;47.876;8.346;2022-12-10T16:42:01;19.87;;;10.60;;
9698;SDS011;10089;47.876;8.346;2022-12-10T16:44:27;15.40;;;10.87;;
9698;SDS011;10089;47.876;8.346;2022-12-10T16:46:53;18.63;;;9.67;;
9698;SDS011;10089;47.876;8.346;2022-12-10T16:49:22;12.57;;;8.90;;
9698;SDS011;10089;47.876;8.346;2022-12-10T16:51:48;13.70;;;9.03;;
9698;SDS011;10089;47.876;8.346;2022-12-10T16:54:14;14.87;;;8.93;;
9698;SDS011;10089;47.876;8.346;2022-12-10T16:56:40;68.03;;;30.43;;
9698;SDS011;10089;47.876;8.346;2022-12-10T16:59:07;14.83;;;8.13;;
9698;SDS011;10089;47.876;8.346;2022-12-10T17:01:35;40.80;;;19.77;;
9698;SDS011;10089;47.876;8.346;2022-12-10T17:04:01;14.83;;;9.73;;
9698;SDS011;10089;47.876;8.346;2022-12-10T17:06:28;14.23;;;8.50;;
9698;SDS011;10089;47.876;8.346;2022-12-10T17:08:54;9.77;;;5.97;;
9698;SDS011;10089;47.876;8.346;2022-12-10T17:14:08;38.13;;;14.23;;
9698;SDS011;10089;47.876;8.346;2022-12-10T17:16:55;77.03;;;27.07;;
9698;SDS011;10089;47.876;8.346;2022-12-10T17:19:23;65.40;;;22.87;;
9698;SDS011;10089;47.876;8.346;2022-12-10T17:21:49;84.70;;;31.00;;
9698;SDS011;10089;47.876;8.346;2022-12-10T17:24:16;18.63;;;10.63;;
9698;SDS011;10089;47.876;8.346;2022-12-10T17:26:43;56.37;;;27.67;;
9698;SDS011;10089;47.876;8.346;2022-12-10T17:29:15;10.93;;;6.20;;